createdAt,value
2023-03-31T00:00:52.268Z,3.77
2023-03-31T00:03:22.808Z,3.80
2023-03-31T00:05:54.741Z,5.90
2023-03-31T00:08:21.756Z,4.47
2023-03-31T00:10:49.020Z,5.13
2023-03-31T00:13:16.682Z,6.13
2023-03-31T00:15:44.427Z,4.47
2023-03-31T00:18:11.343Z,4.83
2023-03-31T00:20:38.291Z,6.00
2023-03-31T00:23:10.748Z,4.63
2023-03-31T00:25:41.824Z,3.63
2023-03-31T00:28:08.728Z,5.07
2023-03-31T00:30:35.832Z,7.73
2023-03-31T00:33:02.722Z,4.63
2023-03-31T00:35:29.575Z,5.50
2023-03-31T00:37:58.037Z,6.67
2023-03-31T00:40:24.932Z,4.13
2023-03-31T00:42:52.063Z,4.13
2023-03-31T00:45:29.089Z,3.80
2023-03-31T00:48:24.085Z,4.93
2023-03-31T00:50:55.434Z,5.67
2023-03-31T00:53:30.207Z,3.23
2023-03-31T00:56:07.717Z,5.80
2023-03-31T00:58:35.065Z,5.93
2023-03-31T01:01:03.469Z,6.10
2023-03-31T01:03:33.496Z,4.37
2023-03-31T01:06:06.548Z,6.77
2023-03-31T01:08:36.619Z,5.23
2023-03-31T01:11:07.914Z,5.73
2023-03-31T01:13:37.271Z,5.20
2023-03-31T01:16:04.691Z,4.93
2023-03-31T01:18:34.956Z,6.87
2023-03-31T01:21:59.824Z,5.77
2023-03-31T01:24:47.168Z,4.73
2023-03-31T01:27:57.693Z,6.97
2023-03-31T01:30:53.675Z,4.30
2023-03-31T01:33:49.498Z,6.93
2023-03-31T01:36:37.435Z,7.67
2023-03-31T01:40:21.599Z,6.20
2023-03-31T01:42:57.126Z,6.90
2023-03-31T01:45:51.029Z,5.87
2023-03-31T01:48:42.174Z,5.90
2023-03-31T01:51:56.963Z,6.73
2023-03-31T01:55:14.355Z,5.87
2023-03-31T01:57:51.295Z,8.10
2023-03-31T02:00:29.576Z,5.70
2023-03-31T02:03:21.910Z,9.93
2023-03-31T02:05:55.290Z,6.03
2023-03-31T02:08:44.279Z,5.70
2023-03-31T02:11:11.854Z,5.50
2023-03-31T02:13:42.181Z,7.97
2023-03-31T02:16:16.228Z,6.13
2023-03-31T02:18:46.686Z,6.50
2023-03-31T02:21:14.677Z,7.67
2023-03-31T02:23:42.406Z,10.27
2023-03-31T02:26:15.767Z,5.40
2023-03-31T02:28:43.263Z,5.10
2023-03-31T02:31:10.107Z,8.33
2023-03-31T02:33:37.150Z,5.20
2023-03-31T02:36:04.714Z,6.20
2023-03-31T02:38:39.571Z,6.00
2023-03-31T02:41:07.632Z,6.43
2023-03-31T02:43:34.528Z,8.90
2023-03-31T02:46:01.365Z,6.37
2023-03-31T02:48:36.626Z,6.07
2023-03-31T02:51:29.675Z,6.60
2023-03-31T02:54:23.294Z,7.53
2023-03-31T02:57:24.001Z,6.77
2023-03-31T03:00:31.625Z,7.57
2023-03-31T03:03:09.778Z,7.43
2023-03-31T03:06:30.139Z,6.47
2023-03-31T03:09:49.181Z,7.57
2023-03-31T03:12:28.127Z,7.90
2023-03-31T03:15:11.417Z,5.23
2023-03-31T03:17:44.640Z,5.20
2023-03-31T03:20:13.886Z,6.67
2023-03-31T03:22:41.142Z,6.90
2023-03-31T03:25:12.705Z,9.33
2023-03-31T03:27:40.314Z,6.70
2023-03-31T03:30:11.239Z,6.17
2023-03-31T03:32:38.303Z,6.43
2023-03-31T03:35:07.312Z,5.77
2023-03-31T03:37:34.346Z,6.03
2023-03-31T03:40:01.209Z,9.47
2023-03-31T03:42:28.177Z,9.03
2023-03-31T03:44:54.948Z,8.70
2023-03-31T03:47:21.757Z,11.67
2023-03-31T03:49:49.269Z,9.63
2023-03-31T03:52:16.592Z,7.83
2023-03-31T03:54:43.399Z,10.67
2023-03-31T03:57:10.882Z,13.13
2023-03-31T03:59:37.744Z,8.73
2023-03-31T04:02:04.584Z,9.50
2023-03-31T04:04:31.527Z,7.80
2023-03-31T04:06:58.328Z,9.77
2023-03-31T04:09:25.570Z,8.37
2023-03-31T04:11:52.419Z,9.17
2023-03-31T04:14:19.281Z,6.60
2023-03-31T04:16:46.933Z,10.20
2023-03-31T04:19:17.507Z,10.53
2023-03-31T04:21:50.802Z,6.40
2023-03-31T04:24:21.674Z,11.33
2023-03-31T04:26:50.834Z,8.63
2023-03-31T04:29:20.662Z,10.17
2023-03-31T04:31:47.683Z,8.73
2023-03-31T04:34:15.927Z,11.17
2023-03-31T04:36:52.188Z,10.50
2023-03-31T04:39:30.501Z,9.00
2023-03-31T04:41:59.046Z,9.00
2023-03-31T04:44:26.214Z,7.97
2023-03-31T04:46:53.810Z,9.23
2023-03-31T04:49:20.636Z,9.00
2023-03-31T04:51:47.645Z,8.27
2023-03-31T04:54:14.557Z,7.20
2023-03-31T04:56:41.338Z,10.47
2023-03-31T04:59:08.588Z,11.37
2023-03-31T05:01:36.395Z,9.73
2023-03-31T05:04:05.513Z,7.77
2023-03-31T05:06:33.073Z,11.93
2023-03-31T05:09:00.087Z,10.20
2023-03-31T05:11:27.383Z,11.43
2023-03-31T05:13:54.472Z,10.53
2023-03-31T05:16:21.716Z,11.63
2023-03-31T05:18:48.639Z,12.53
2023-03-31T05:21:21.572Z,10.77
2023-03-31T05:23:49.068Z,11.17
2023-03-31T05:26:16.499Z,10.27
2023-03-31T05:28:43.374Z,10.07
2023-03-31T05:31:12.952Z,11.17
2023-03-31T05:33:41.741Z,11.20
2023-03-31T05:36:12.630Z,7.77
2023-03-31T05:38:40.292Z,12.53
2023-03-31T05:41:09.306Z,9.23
2023-03-31T05:43:38.138Z,10.40
2023-03-31T05:46:06.599Z,10.67
2023-03-31T05:48:33.825Z,13.07
2023-03-31T05:51:01.616Z,11.63
2023-03-31T05:53:28.940Z,10.77
2023-03-31T05:56:01.955Z,10.40
2023-03-31T05:58:29.849Z,13.80
2023-03-31T06:01:08.438Z,11.60
2023-03-31T06:03:38.023Z,10.90
2023-03-31T06:06:06.251Z,10.47
2023-03-31T06:08:33.203Z,12.17
2023-03-31T06:11:00.980Z,13.63
2023-03-31T06:13:27.854Z,13.17
2023-03-31T06:15:57.003Z,14.67
2023-03-31T06:18:24.719Z,10.93
2023-03-31T06:20:52.326Z,10.97
2023-03-31T06:23:19.235Z,13.53
2023-03-31T06:25:51.221Z,13.47
2023-03-31T06:28:19.874Z,13.03
2023-03-31T06:30:47.198Z,10.07
2023-03-31T06:33:14.497Z,11.73
2023-03-31T06:35:41.746Z,11.63
2023-03-31T06:38:08.947Z,10.30
2023-03-31T06:40:36.351Z,10.30
2023-03-31T06:43:03.238Z,9.43
2023-03-31T06:45:30.303Z,8.67
2023-03-31T06:47:57.183Z,17.20
2023-03-31T06:50:24.048Z,12.03
2023-03-31T06:52:53.091Z,15.87
2023-03-31T06:55:19.914Z,14.23
2023-03-31T06:57:46.847Z,12.00
2023-03-31T07:00:14.501Z,9.63
2023-03-31T07:02:41.450Z,11.13
2023-03-31T07:05:08.385Z,11.60
2023-03-31T07:07:35.449Z,10.80
2023-03-31T07:10:02.335Z,9.73
2023-03-31T07:12:29.554Z,11.00
2023-03-31T07:14:56.587Z,12.60
2023-03-31T07:17:25.402Z,10.43
2023-03-31T07:19:52.425Z,11.40
2023-03-31T07:22:19.427Z,10.80
2023-03-31T07:24:46.271Z,11.57
2023-03-31T07:27:13.109Z,9.83
2023-03-31T07:29:39.922Z,14.90
2023-03-31T07:32:06.773Z,13.00
2023-03-31T07:34:35.484Z,10.20
2023-03-31T07:37:03.827Z,10.67
2023-03-31T07:39:30.903Z,11.83
2023-03-31T07:41:57.795Z,10.40
2023-03-31T07:44:24.630Z,10.90
2023-03-31T07:46:51.475Z,18.30
2023-03-31T07:49:18.292Z,17.23
2023-03-31T07:51:45.163Z,11.13
2023-03-31T07:54:11.967Z,13.13
2023-03-31T07:56:38.810Z,14.63
2023-03-31T07:59:05.821Z,13.23
2023-03-31T08:01:32.984Z,12.23
2023-03-31T08:04:00.861Z,10.13
2023-03-31T08:06:29.149Z,11.23
2023-03-31T08:08:57.541Z,11.33
2023-03-31T08:11:25.901Z,9.47
2023-03-31T08:13:53.343Z,12.63
2023-03-31T08:16:20.365Z,10.60
2023-03-31T08:18:47.315Z,11.10
2023-03-31T08:21:14.476Z,13.13
2023-03-31T08:23:41.309Z,10.40
2023-03-31T08:26:21.780Z,9.73
2023-03-31T08:28:49.286Z,11.37
2023-03-31T08:31:18.767Z,10.40
2023-03-31T08:33:47.062Z,12.63
2023-03-31T08:36:14.678Z,9.87
2023-03-31T08:38:45.875Z,9.20
2023-03-31T08:41:59.463Z,8.00
2023-03-31T08:44:48.187Z,9.60
2023-03-31T08:47:23.524Z,8.90
2023-03-31T08:49:58.843Z,11.13
2023-03-31T08:52:40.251Z,10.27
2023-03-31T08:55:32.450Z,8.93
2023-03-31T08:58:34.210Z,8.93
2023-03-31T09:01:47.939Z,11.23
2023-03-31T09:04:59.671Z,10.63
2023-03-31T09:08:06.652Z,11.00
2023-03-31T09:10:49.554Z,12.67
2023-03-31T09:13:45.326Z,8.43
2023-03-31T09:16:27.652Z,9.13
2023-03-31T09:19:02.637Z,6.47
2023-03-31T09:21:44.854Z,7.40
2023-03-31T09:24:21.647Z,9.63
2023-03-31T09:26:55.503Z,9.97
2023-03-31T09:29:52.712Z,9.20
2023-03-31T09:32:24.850Z,9.87
2023-03-31T09:34:57.512Z,10.73
2023-03-31T09:37:31.627Z,10.40
2023-03-31T09:40:01.929Z,10.47
2023-03-31T09:42:28.743Z,7.97
2023-03-31T09:44:56.115Z,10.73
2023-03-31T09:47:33.903Z,9.60
2023-03-31T09:50:00.838Z,9.07
2023-03-31T09:52:40.616Z,6.77
2023-03-31T09:55:38.897Z,5.47
2023-03-31T09:58:11.883Z,4.50
2023-03-31T10:00:57.323Z,5.77
2023-03-31T10:03:25.157Z,5.60
2023-03-31T10:05:55.751Z,6.20
2023-03-31T10:08:40.317Z,4.90
2023-03-31T10:11:11.558Z,5.67
2023-03-31T10:13:49.811Z,3.93
2023-03-31T10:16:53.036Z,4.73
2023-03-31T10:19:28.476Z,4.67
2023-03-31T10:22:06.069Z,3.20
2023-03-31T10:24:46.831Z,3.10
2023-03-31T10:27:28.256Z,3.83
2023-03-31T10:30:01.185Z,3.97
2023-03-31T10:32:34.755Z,3.57
2023-03-31T10:35:12.702Z,3.67
2023-03-31T10:37:40.693Z,2.63
2023-03-31T10:40:19.737Z,5.87
2023-03-31T10:42:50.827Z,3.47
2023-03-31T10:45:37.182Z,4.80
2023-03-31T10:48:05.486Z,3.67
2023-03-31T10:50:35.458Z,3.93
2023-03-31T10:53:04.980Z,3.90
2023-03-31T10:55:51.565Z,3.73
2023-03-31T10:58:36.467Z,3.93
2023-03-31T11:01:48.837Z,3.13
2023-03-31T11:04:45.465Z,2.53
2023-03-31T11:07:43.152Z,3.27
2023-03-31T11:10:41.054Z,2.23
2023-03-31T11:13:53.036Z,3.13
2023-03-31T11:16:49.167Z,2.27
2023-03-31T11:19:39.532Z,1.93
2023-03-31T11:22:26.236Z,3.37
2023-03-31T11:25:31.943Z,3.93
2023-03-31T11:28:27.137Z,2.17
2023-03-31T11:31:07.292Z,1.80
2023-03-31T11:34:34.304Z,3.03
2023-03-31T11:37:41.775Z,2.33
2023-03-31T11:40:34.644Z,2.50
2023-03-31T11:43:09.966Z,2.43
2023-03-31T11:45:54.217Z,1.47
2023-03-31T11:48:48.116Z,4.43
2023-03-31T11:51:31.725Z,2.60
2023-03-31T11:54:01.328Z,2.03
2023-03-31T11:56:36.781Z,1.10
2023-03-31T11:59:04.479Z,1.97
2023-03-31T12:01:48.133Z,1.00
2023-03-31T12:04:48.896Z,1.60
2023-03-31T12:07:30.462Z,2.33
2023-03-31T12:10:15.256Z,2.40
2023-03-31T12:13:24.337Z,2.20
2023-03-31T12:16:23.253Z,4.13
2023-03-31T12:19:11.528Z,3.20
2023-03-31T12:21:42.478Z,2.40
2023-03-31T12:24:13.604Z,2.03
2023-03-31T12:27:05.365Z,2.50
2023-03-31T12:29:39.925Z,3.83
2023-03-31T12:32:21.431Z,2.17
2023-03-31T12:34:58.534Z,3.03
2023-03-31T12:37:48.069Z,1.50
2023-03-31T12:40:29.869Z,1.67
2023-03-31T12:43:22.266Z,1.67
2023-03-31T12:46:10.424Z,2.20
2023-03-31T12:48:53.444Z,2.10
2023-03-31T12:51:49.699Z,2.00
2023-03-31T12:54:54.387Z,1.00
2023-03-31T12:57:26.923Z,1.87
2023-03-31T13:00:16.994Z,3.17
2023-03-31T13:02:44.197Z,3.57
2023-03-31T13:05:38.743Z,2.93
2023-03-31T13:08:09.131Z,2.30
2023-03-31T13:10:58.852Z,1.93
2023-03-31T13:13:26.796Z,2.87
2023-03-31T13:15:57.202Z,2.40
2023-03-31T13:18:24.948Z,2.07
2023-03-31T13:21:06.530Z,2.57
2023-03-31T13:23:37.768Z,2.17
2023-03-31T13:26:06.878Z,2.00
2023-03-31T13:28:42.483Z,3.67
2023-03-31T13:31:15.260Z,2.50
2023-03-31T13:33:47.214Z,4.27
2023-03-31T13:36:36.138Z,3.83
2023-03-31T13:39:18.398Z,3.07
2023-03-31T13:42:12.152Z,4.43
2023-03-31T13:45:27.211Z,4.17
2023-03-31T13:48:15.514Z,3.00
2023-03-31T13:51:00.703Z,2.07
2023-03-31T13:53:45.000Z,3.60
2023-03-31T13:56:51.256Z,2.43
2023-03-31T13:59:33.014Z,5.10
2023-03-31T14:02:44.062Z,4.40
2023-03-31T14:06:04.496Z,1.47
2023-03-31T14:08:54.938Z,2.93
2023-03-31T14:11:28.376Z,1.90
2023-03-31T14:14:18.630Z,2.23
2023-03-31T14:16:59.083Z,2.03
2023-03-31T14:19:54.095Z,3.17
2023-03-31T14:22:32.379Z,2.53
2023-03-31T14:25:14.048Z,1.00
2023-03-31T14:28:24.920Z,2.80
2023-03-31T14:31:20.361Z,2.77
2023-03-31T14:34:39.926Z,2.33
2023-03-31T14:37:11.178Z,1.50
2023-03-31T14:39:46.420Z,6.97
2023-03-31T14:42:17.681Z,1.77
2023-03-31T14:44:47.838Z,2.13
2023-03-31T14:47:24.603Z,2.57
2023-03-31T14:50:16.984Z,1.50
2023-03-31T14:52:49.513Z,2.90
2023-03-31T14:55:21.647Z,2.30
2023-03-31T14:57:52.345Z,2.20
2023-03-31T15:00:28.673Z,3.13
2023-03-31T15:02:58.465Z,0.93
2023-03-31T15:05:32.139Z,2.87
2023-03-31T15:08:11.185Z,2.13
2023-03-31T15:10:53.931Z,2.97
2023-03-31T15:13:39.719Z,2.83
2023-03-31T15:16:28.591Z,2.23
2023-03-31T15:18:56.962Z,2.33
2023-03-31T15:21:31.574Z,1.53
2023-03-31T15:23:59.018Z,1.33
2023-03-31T15:26:41.621Z,1.93
2023-03-31T15:29:36.753Z,2.07
2023-03-31T15:32:06.837Z,3.17
2023-03-31T15:34:37.077Z,1.10
2023-03-31T15:37:07.803Z,1.30
2023-03-31T15:39:37.991Z,1.00
2023-03-31T15:42:07.204Z,2.17
2023-03-31T15:45:16.602Z,1.07
2023-03-31T15:47:52.766Z,1.27
2023-03-31T15:50:28.952Z,0.83
2023-03-31T15:52:58.393Z,1.20
2023-03-31T15:55:33.288Z,1.60
2023-03-31T15:58:01.714Z,1.67
2023-03-31T16:00:41.227Z,0.80
2023-03-31T16:03:38.725Z,2.60
2023-03-31T16:06:28.918Z,3.33
2023-03-31T16:09:06.175Z,1.90
2023-03-31T16:11:47.975Z,3.03
2023-03-31T16:14:25.340Z,1.87
2023-03-31T16:17:03.998Z,1.93
2023-03-31T16:19:47.434Z,1.80
2023-03-31T16:22:20.568Z,1.27
2023-03-31T16:24:47.986Z,3.27
2023-03-31T16:27:15.502Z,1.60
2023-03-31T16:29:42.493Z,2.27
2023-03-31T16:32:14.478Z,1.53
2023-03-31T16:35:00.751Z,3.93
2023-03-31T16:37:27.934Z,1.73
2023-03-31T16:39:55.626Z,2.67
2023-03-31T16:42:23.086Z,1.87
2023-03-31T16:44:59.930Z,1.80
2023-03-31T16:47:35.465Z,1.80
2023-03-31T16:50:07.235Z,1.50
2023-03-31T16:52:34.719Z,1.53
2023-03-31T16:55:01.948Z,7.40
2023-03-31T16:57:29.200Z,2.17
2023-03-31T16:59:57.594Z,2.13
2023-03-31T17:02:26.184Z,2.80
2023-03-31T17:04:56.625Z,2.30
2023-03-31T17:07:27.022Z,1.33
2023-03-31T17:09:53.926Z,2.23
2023-03-31T17:12:20.847Z,2.57
2023-03-31T17:14:47.761Z,2.13
2023-03-31T17:17:17.359Z,2.27
2023-03-31T17:19:44.775Z,0.80
2023-03-31T17:22:12.071Z,2.40
2023-03-31T17:24:38.969Z,2.03
2023-03-31T17:27:05.959Z,1.43
2023-03-31T17:29:32.765Z,2.57
2023-03-31T17:31:59.659Z,2.47
2023-03-31T17:34:26.612Z,1.73
2023-03-31T17:36:55.389Z,1.03
2023-03-31T17:39:22.585Z,0.73
2023-03-31T17:41:49.425Z,1.43
2023-03-31T17:44:16.466Z,1.47
2023-03-31T17:46:43.364Z,0.80
2023-03-31T17:49:10.853Z,0.40
2023-03-31T17:51:38.058Z,0.70
2023-03-31T17:54:05.020Z,1.17
2023-03-31T17:56:32.573Z,1.07
2023-03-31T17:58:59.513Z,1.23
2023-03-31T18:01:27.030Z,0.50
2023-03-31T18:03:56.226Z,0.40
2023-03-31T18:06:23.216Z,0.50
2023-03-31T18:08:50.213Z,1.00
2023-03-31T18:11:17.283Z,0.30
2023-03-31T18:13:44.772Z,0.43
2023-03-31T18:16:12.944Z,0.43
2023-03-31T18:18:41.436Z,0.30
2023-03-31T18:21:13.421Z,0.30
2023-03-31T18:23:41.241Z,1.33
2023-03-31T18:26:11.285Z,1.20
2023-03-31T18:28:39.994Z,0.87
2023-03-31T18:31:08.471Z,0.20
2023-03-31T18:33:35.973Z,0.53
2023-03-31T18:36:03.322Z,0.47
2023-03-31T18:38:30.593Z,0.53
2023-03-31T18:40:57.980Z,0.30
2023-03-31T18:43:26.220Z,1.37
2023-03-31T18:45:56.349Z,1.77
2023-03-31T18:48:23.924Z,1.83
2023-03-31T18:50:52.856Z,1.00
2023-03-31T18:53:21.347Z,1.20
2023-03-31T18:55:57.351Z,1.50
2023-03-31T18:58:25.913Z,1.27
2023-03-31T19:00:53.101Z,2.23
2023-03-31T19:03:20.284Z,1.50
2023-03-31T19:05:47.360Z,3.77
2023-03-31T19:08:14.163Z,2.40
2023-03-31T19:10:41.159Z,3.83
2023-03-31T19:13:08.544Z,1.33
2023-03-31T19:15:37.408Z,1.37
2023-03-31T19:18:04.780Z,1.10
2023-03-31T19:20:31.650Z,0.87
2023-03-31T19:22:58.569Z,0.93
2023-03-31T19:25:25.463Z,1.03
2023-03-31T19:27:52.359Z,2.53
2023-03-31T19:30:24.126Z,1.77
2023-03-31T19:32:51.021Z,2.10
2023-03-31T19:35:19.996Z,1.20
2023-03-31T19:37:48.893Z,1.73
2023-03-31T19:40:15.854Z,2.90
2023-03-31T19:42:44.234Z,1.87
2023-03-31T19:45:11.180Z,2.43
2023-03-31T19:47:38.391Z,2.63
2023-03-31T19:50:07.323Z,1.57
2023-03-31T19:52:35.307Z,2.77
2023-03-31T19:55:02.143Z,3.03
2023-03-31T19:57:29.097Z,5.03
2023-03-31T19:59:56.048Z,1.90
2023-03-31T20:02:23.606Z,1.57
2023-03-31T20:04:51.493Z,1.87
2023-03-31T20:07:18.736Z,2.40
2023-03-31T20:09:46.005Z,2.63
2023-03-31T20:12:12.955Z,2.43
2023-03-31T20:14:40.253Z,2.00
2023-03-31T20:17:07.524Z,2.60
2023-03-31T20:19:35.052Z,1.07
2023-03-31T20:22:02.039Z,3.30
2023-03-31T20:24:29.387Z,2.33
2023-03-31T20:26:56.252Z,1.70
2023-03-31T20:29:24.853Z,3.33
2023-03-31T20:31:52.002Z,3.17
2023-03-31T20:34:22.226Z,2.93
2023-03-31T20:36:51.544Z,3.07
2023-03-31T20:39:19.806Z,1.53
2023-03-31T20:41:47.337Z,2.37
2023-03-31T20:44:15.756Z,3.33
2023-03-31T20:46:44.733Z,2.43
2023-03-31T20:49:12.281Z,5.23
2023-03-31T20:51:39.222Z,2.07
2023-03-31T20:54:07.866Z,2.87
2023-03-31T20:56:39.346Z,1.70
2023-03-31T20:59:10.338Z,1.60
2023-03-31T21:01:37.806Z,1.70
2023-03-31T21:04:07.382Z,2.00
2023-03-31T21:06:43.022Z,2.10
2023-03-31T21:09:12.199Z,2.03
2023-03-31T21:11:42.724Z,3.07
2023-03-31T21:14:16.793Z,2.33
2023-03-31T21:16:44.674Z,3.13
2023-03-31T21:19:11.749Z,2.77
2023-03-31T21:21:41.324Z,2.40
2023-03-31T21:24:11.331Z,3.23
2023-03-31T21:26:38.915Z,2.37
2023-03-31T21:29:05.932Z,4.77
2023-03-31T21:31:33.232Z,2.17
2023-03-31T21:34:02.318Z,4.40
2023-03-31T21:36:29.616Z,4.07
2023-03-31T21:38:57.818Z,2.97
2023-03-31T21:41:30.582Z,3.57
2023-03-31T21:44:00.491Z,3.27
2023-03-31T21:46:32.609Z,3.23
2023-03-31T21:49:00.008Z,3.13
2023-03-31T21:51:27.157Z,2.07
2023-03-31T21:53:55.735Z,3.47
2023-03-31T21:56:25.292Z,2.87
2023-03-31T21:58:52.583Z,3.13
2023-03-31T22:01:21.511Z,2.70
2023-03-31T22:03:49.385Z,3.03
2023-03-31T22:06:16.726Z,3.63
2023-03-31T22:08:43.984Z,2.87
2023-03-31T22:11:12.217Z,4.17
2023-03-31T22:13:39.801Z,1.43
2023-03-31T22:16:18.682Z,3.03
2023-03-31T22:18:47.107Z,2.20
2023-03-31T22:21:22.694Z,2.77
2023-03-31T22:23:56.171Z,1.33
2023-03-31T22:26:24.140Z,1.93
2023-03-31T22:28:51.298Z,1.83
2023-03-31T22:31:18.591Z,4.07
2023-03-31T22:33:46.250Z,1.57
2023-03-31T22:36:13.731Z,4.97
2023-03-31T22:38:40.664Z,3.27
2023-03-31T22:41:07.856Z,1.43
2023-03-31T22:43:34.819Z,2.10
2023-03-31T22:46:06.899Z,1.87
2023-03-31T22:48:34.515Z,2.73
2023-03-31T22:51:08.841Z,1.50
2023-03-31T22:53:35.887Z,1.47
2023-03-31T22:56:10.759Z,2.07
2023-03-31T22:58:38.227Z,1.87
2023-03-31T23:01:06.934Z,1.90
2023-03-31T23:03:34.597Z,2.27
2023-03-31T23:06:06.240Z,1.50
2023-03-31T23:08:35.494Z,0.73
2023-03-31T23:11:06.224Z,1.30
2023-03-31T23:13:33.820Z,1.53
2023-03-31T23:16:18.260Z,2.30
2023-03-31T23:18:47.452Z,0.67
2023-03-31T23:21:23.708Z,1.40
2023-03-31T23:23:53.691Z,3.77
2023-03-31T23:26:23.424Z,2.70
2023-03-31T23:28:51.287Z,0.63
2023-03-31T23:31:27.562Z,3.03
2023-03-31T23:33:54.494Z,3.13
2023-03-31T23:36:21.724Z,1.87
2023-03-31T23:38:50.571Z,1.17
2023-03-31T23:41:18.203Z,1.23
2023-03-31T23:43:45.746Z,0.90
2023-03-31T23:46:13.488Z,0.93
2023-03-31T23:48:40.730Z,1.27
2023-03-31T23:51:09.827Z,2.57
2023-03-31T23:53:36.821Z,2.77
2023-03-31T23:56:08.830Z,1.17
2023-03-31T23:58:36.310Z,0.63
